sensor_id;sensor_type;location;lat;lon;timestamp;noise_LAeq;noise_LA_min;noise_LA_max;noise_LA01;noise_LA95
66463;Laerm;56827;52.178;4.500;2022-12-18T00:00:06;33.18;31.61;35.10;;
66463;Laerm;56827;52.178;4.500;2022-12-18T00:00:16;35.00;32.22;39.17;;
66463;Laerm;56827;52.178;4.500;2022-12-18T00:00:27;35.18;32.51;39.66;;
66463;Laerm;56827;52.178;4.500;2022-12-18T00:00:43;32.85;31.44;34.19;;
66463;Laerm;56827;52.178;4.500;2022-12-18T00:00:53;32.84;30.67;34.80;;
66463;Laerm;56827;52.178;4.500;2022-12-18T00:01:04;33.42;31.58;40.32;;
66463;Laerm;56827;52.178;4.500;2022-12-18T00:01:19;33.85;32.01;36.54;;
66463;Laerm;56827;52.178;4.500;2022-12-18T00:01:31;33.72;31.49;37.59;;
66463;Laerm;56827;52.178;4.500;2022-12-18T00:01:42;36.25;32.23;40.97;;
66463;Laerm;56827;52.178;4.500;2022-12-18T00:01:53;33.18;31.40;35.40;;
66463;Laerm;56827;52.178;4.500;2022-12-18T00:02:03;33.72;32.05;38.30;;
66463;Laerm;56827;52.178;4.500;2022-12-18T00:02:14;33.41;31.72;35.48;;
66463;Laerm;56827;52.178;4.500;2022-12-18T00:02:24;33.63;31.94;35.64;;
66463;Laerm;56827;52.178;4.500;2022-12-18T00:02:34;33.27;31.86;34.68;;
66463;Laerm;56827;52.178;4.500;2022-12-18T00:02:44;32.93;31.29;34.44;;
66463;Laerm;56827;52.178;4.500;2022-12-18T00:02:55;33.00;31.33;34.60;;
66463;Laerm;56827;52.178;4.500;2022-12-18T00:03:05;32.98;31.38;35.09;;
66463;Laerm;56827;52.178;4.500;2022-12-18T00:03:15;33.89;32.03;35.31;;
66463;Laerm;56827;52.178;4.500;2022-12-18T00:03:26;35.31;33.18;41.37;;
66463;Laerm;56827;52.178;4.500;2022-12-18T00:03:36;35.78;33.38;43.65;;
66463;Laerm;56827;52.178;4.500;2022-12-18T00:03:46;33.53;31.58;35.71;;
66463;Laerm;56827;52.178;4.500;2022-12-18T00:03:57;33.04;31.56;35.27;;
66463;Laerm;56827;52.178;4.500;2022-12-18T00:04:11;33.74;32.10;35.28;;
66463;Laerm;56827;52.178;4.500;2022-12-18T00:04:25;36.29;33.45;41.41;;
66463;Laerm;56827;52.178;4.500;2022-12-18T00:04:35;34.93;33.19;36.94;;
66463;Laerm;56827;52.178;4.500;2022-12-18T00:04:45;35.76;32.87;38.87;;
66463;Laerm;56827;52.178;4.500;2022-12-18T00:04:56;33.80;32.16;35.92;;
66463;Laerm;56827;52.178;4.500;2022-12-18T00:05:06;35.64;32.26;39.14;;
66463;Laerm;56827;52.178;4.500;2022-12-18T00:05:16;36.16;31.75;47.60;;
66463;Laerm;56827;52.178;4.500;2022-12-18T00:05:26;33.63;31.65;35.66;;
66463;Laerm;56827;52.178;4.500;2022-12-18T00:05:37;33.23;31.90;34.29;;
66463;Laerm;56827;52.178;4.500;2022-12-18T00:05:47;34.23;32.00;36.30;;
66463;Laerm;56827;52.178;4.500;2022-12-18T00:05:58;33.27;31.54;34.66;;
66463;Laerm;56827;52.178;4.500;2022-12-18T00:06:08;32.84;31.40;34.25;;
66463;Laerm;56827;52.178;4.500;2022-12-18T00:06:19;32.97;31.51;34.24;;
66463;Laerm;56827;52.178;4.500;2022-12-18T00:06:29;33.68;31.47;35.39;;
66463;Laerm;56827;52.178;4.500;2022-12-18T00:06:39;34.46;32.37;36.53;;
66463;Laerm;56827;52.178;4.500;2022-12-18T00:06:50;34.61;33.20;41.63;;
66463;Laerm;56827;52.178;4.500;2022-12-18T00:07:00;33.58;31.57;39.39;;
66463;Laerm;56827;52.178;4.500;2022-12-18T00:07:10;32.57;30.94;34.40;;
66463;Laerm;56827;52.178;4.500;2022-12-18T00:07:21;32.73;31.21;34.18;;
66463;Laerm;56827;52.178;4.500;2022-12-18T00:07:31;33.00;30.74;36.03;;
66463;Laerm;56827;52.178;4.500;2022-12-18T00:07:41;33.22;31.10;36.33;;
66463;Laerm;56827;52.178;4.500;2022-12-18T00:07:51;34.66;32.42;36.65;;
66463;Laerm;56827;52.178;4.500;2022-12-18T00:08:01;33.28;31.81;34.56;;
66463;Laerm;56827;52.178;4.500;2022-12-18T00:08:12;33.05;31.34;34.69;;
66463;Laerm;56827;52.178;4.500;2022-12-18T00:08:22;32.77;31.20;40.62;;
66463;Laerm;56827;52.178;4.500;2022-12-18T00:08:32;33.23;31.39;39.42;;
66463;Laerm;56827;52.178;4.500;2022-12-18T00:08:43;34.75;32.02;43.79;;
66463;Laerm;56827;52.178;4.500;2022-12-18T00:08:55;32.91;31.34;35.98;;
66463;Laerm;56827;52.178;4.500;2022-12-18T00:09:05;33.25;31.70;34.66;;
66463;Laerm;56827;52.178;4.500;2022-12-18T00:09:15;32.77;31.12;34.31;;
66463;Laerm;56827;52.178;4.500;2022-12-18T00:09:26;33.71;30.91;43.92;;
66463;Laerm;56827;52.178;4.500;2022-12-18T00:09:36;32.55;30.95;34.29;;
66463;Laerm;56827;52.178;4.500;2022-12-18T00:09:46;34.10;31.82;36.17;;
66463;Laerm;56827;52.178;4.500;2022-12-18T00:09:57;33.13;31.14;36.18;;
66463;Laerm;56827;52.178;4.500;2022-12-18T00:10:07;37.62;31.07;53.31;;
66463;Laerm;56827;52.178;4.500;2022-12-18T00:10:17;35.53;32.21;46.93;;
66463;Laerm;56827;52.178;4.500;2022-12-18T00:10:28;33.63;31.42;36.31;;
66463;Laerm;56827;52.178;4.500;2022-12-18T00:10:38;36.24;33.93;39.06;;
66463;Laerm;56827;52.178;4.500;2022-12-18T00:10:49;34.27;31.59;37.13;;
66463;Laerm;56827;52.178;4.500;2022-12-18T00:11:10;33.06;31.27;34.57;;
66463;Laerm;56827;52.178;4.500;2022-12-18T00:11:22;35.67;31.35;54.84;;
66463;Laerm;56827;52.178;4.500;2022-12-18T00:11:32;34.05;32.28;37.24;;
66463;Laerm;56827;52.178;4.500;2022-12-18T00:11:42;34.07;32.52;35.67;;
66463;Laerm;56827;52.178;4.500;2022-12-18T00:11:53;34.44;32.79;36.38;;
66463;Laerm;56827;52.178;4.500;2022-12-18T00:12:03;34.63;31.90;37.85;;
66463;Laerm;56827;52.178;4.500;2022-12-18T00:12:13;36.51;33.52;40.79;;
66463;Laerm;56827;52.178;4.500;2022-12-18T00:12:23;37.94;32.03;51.67;;
66463;Laerm;56827;52.178;4.500;2022-12-18T00:12:34;34.47;31.81;48.45;;
66463;Laerm;56827;52.178;4.500;2022-12-18T00:12:44;34.48;32.69;36.59;;
66463;Laerm;56827;52.178;4.500;2022-12-18T00:12:54;35.44;33.02;43.05;;
66463;Laerm;56827;52.178;4.500;2022-12-18T00:13:04;32.61;30.84;39.08;;
66463;Laerm;56827;52.178;4.500;2022-12-18T00:13:15;31.80;30.21;33.81;;
66463;Laerm;56827;52.178;4.500;2022-12-18T00:13:25;32.59;30.58;34.37;;
66463;Laerm;56827;52.178;4.500;2022-12-18T00:13:37;32.71;31.14;34.26;;
66463;Laerm;56827;52.178;4.500;2022-12-18T00:13:47;33.28;31.92;35.01;;
66463;Laerm;56827;52.178;4.500;2022-12-18T00:13:58;33.15;31.42;34.86;;
66463;Laerm;56827;52.178;4.500;2022-12-18T00:14:09;35.81;31.56;53.06;;
66463;Laerm;56827;52.178;4.500;2022-12-18T00:14:20;32.80;30.60;35.36;;
66463;Laerm;56827;52.178;4.500;2022-12-18T00:14:31;32.71;31.43;35.37;;
66463;Laerm;56827;52.178;4.500;2022-12-18T00:14:41;33.17;31.73;34.91;;
66463;Laerm;56827;52.178;4.500;2022-12-18T00:14:52;33.53;31.54;37.20;;
66463;Laerm;56827;52.178;4.500;2022-12-18T00:15:02;38.57;32.70;49.37;;
66463;Laerm;56827;52.178;4.500;2022-12-18T00:15:12;36.48;33.63;42.07;;
66463;Laerm;56827;52.178;4.500;2022-12-18T00:15:22;33.96;32.18;37.19;;
66463;Laerm;56827;52.178;4.500;2022-12-18T00:15:34;33.71;32.03;35.22;;
66463;Laerm;56827;52.178;4.500;2022-12-18T00:15:44;37.84;33.50;45.38;;
66463;Laerm;56827;52.178;4.500;2022-12-18T00:15:54;43.60;36.87;49.14;;
66463;Laerm;56827;52.178;4.500;2022-12-18T00:16:09;34.23;32.56;37.86;;
66463;Laerm;56827;52.178;4.500;2022-12-18T00:16:20;33.62;31.56;35.41;;
66463;Laerm;56827;52.178;4.500;2022-12-18T00:16:31;32.80;31.32;34.39;;
66463;Laerm;56827;52.178;4.500;2022-12-18T00:16:43;34.64;31.77;38.96;;
66463;Laerm;56827;52.178;4.500;2022-12-18T00:16:53;34.73;32.92;38.02;;
66463;Laerm;56827;52.178;4.500;2022-12-18T00:17:04;34.46;32.54;37.18;;
66463;Laerm;56827;52.178;4.500;2022-12-18T00:17:14;33.12;31.09;34.78;;
66463;Laerm;56827;52.178;4.500;2022-12-18T00:17:24;33.23;31.29;34.99;;
66463;Laerm;56827;52.178;4.500;2022-12-18T00:17:34;34.89;33.01;37.28;;
66463;Laerm;56827;52.178;4.500;2022-12-18T00:17:45;36.33;33.88;39.89;;
66463;Laerm;56827;52.178;4.500;2022-12-18T00:17:55;36.03;32.73;39.15;;
66463;Laerm;56827;52.178;4.500;2022-12-18T00:18:05;35.40;33.60;37.54;;
66463;Laerm;56827;52.178;4.500;2022-12-18T00:18:16;35.25;32.83;38.42;;
66463;Laerm;56827;52.178;4.500;2022-12-18T00:18:26;34.24;32.43;36.66;;
66463;Laerm;56827;52.178;4.500;2022-12-18T00:18:36;34.45;31.54;37.85;;
66463;Laerm;56827;52.178;4.500;2022-12-18T00:18:47;32.44;31.06;34.35;;
66463;Laerm;56827;52.178;4.500;2022-12-18T00:18:58;32.39;30.93;33.66;;
66463;Laerm;56827;52.178;4.500;2022-12-18T00:19:08;32.38;30.79;33.80;;
66463;Laerm;56827;52.178;4.500;2022-12-18T00:19:19;32.72;31.08;34.34;;
66463;Laerm;56827;52.178;4.500;2022-12-18T00:19:29;32.87;31.52;34.13;;
66463;Laerm;56827;52.178;4.500;2022-12-18T00:19:40;33.20;31.86;34.15;;
66463;Laerm;56827;52.178;4.500;2022-12-18T00:19:50;32.59;31.28;34.11;;
66463;Laerm;56827;52.178;4.500;2022-12-18T00:20:00;32.47;30.97;34.44;;
66463;Laerm;56827;52.178;4.500;2022-12-18T00:20:10;32.84;31.28;37.84;;
66463;Laerm;56827;52.178;4.500;2022-12-18T00:20:21;33.51;31.07;36.40;;
66463;Laerm;56827;52.178;4.500;2022-12-18T00:20:36;35.41;32.60;41.30;;
66463;Laerm;56827;52.178;4.500;2022-12-18T00:20:46;33.30;31.12;36.30;;
66463;Laerm;56827;52.178;4.500;2022-12-18T00:21:00;33.09;31.22;34.80;;
66463;Laerm;56827;52.178;4.500;2022-12-18T00:21:11;33.12;31.52;35.02;;
66463;Laerm;56827;52.178;4.500;2022-12-18T00:21:22;33.45;31.86;34.49;;
66463;Laerm;56827;52.178;4.500;2022-12-18T00:21:32;32.75;31.33;34.09;;
66463;Laerm;56827;52.178;4.500;2022-12-18T00:21:43;32.46;31.19;33.92;;
66463;Laerm;56827;52.178;4.500;2022-12-18T00:21:53;32.85;31.41;34.19;;
66463;Laerm;56827;52.178;4.500;2022-12-18T00:22:04;32.41;30.79;35.05;;
66463;Laerm;56827;52.178;4.500;2022-12-18T00:22:15;32.31;30.54;33.67;;
66463;Laerm;56827;52.178;4.500;2022-12-18T00:22:26;32.01;30.49;33.65;;
66463;Laerm;56827;52.178;4.500;2022-12-18T00:22:36;31.61;30.14;32.75;;
66463;Laerm;56827;52.178;4.500;2022-12-18T00:22:46;32.18;30.78;34.03;;
66463;Laerm;56827;52.178;4.500;2022-12-18T00:22:56;32.86;31.41;34.45;;
66463;Laerm;56827;52.178;4.500;2022-12-18T00:23:07;36.67;32.16;41.29;;
66463;Laerm;56827;52.178;4.500;2022-12-18T00:23:17;36.33;34.19;42.16;;
66463;Laerm;56827;52.178;4.500;2022-12-18T00:23:27;35.66;33.06;42.66;;
66463;Laerm;56827;52.178;4.500;2022-12-18T00:23:38;33.16;31.28;38.24;;
66463;Laerm;56827;52.178;4.500;2022-12-18T00:23:49;32.49;31.07;34.09;;
66463;Laerm;56827;52.178;4.500;2022-12-18T00:24:00;31.96;30.27;33.38;;
66463;Laerm;56827;52.178;4.500;2022-12-18T00:24:10;32.13;30.69;35.86;;
66463;Laerm;56827;52.178;4.500;2022-12-18T00:24:21;32.20;30.71;33.60;;
66463;Laerm;56827;52.178;4.500;2022-12-18T00:24:31;32.68;30.73;34.87;;
66463;Laerm;56827;52.178;4.500;2022-12-18T00:24:41;31.82;30.23;33.10;;
66463;Laerm;56827;52.178;4.500;2022-12-18T00:24:51;33.71;31.12;35.58;;
66463;Laerm;56827;52.178;4.500;2022-12-18T00:25:02;36.07;34.26;38.15;;
66463;Laerm;56827;52.178;4.500;2022-12-18T00:25:12;35.96;32.43;43.44;;
66463;Laerm;56827;52.178;4.500;2022-12-18T00:25:22;37.40;34.50;43.52;;
66463;Laerm;56827;52.178;4.500;2022-12-18T00:25:33;34.96;32.97;38.83;;
66463;Laerm;56827;52.178;4.500;2022-12-18T00:25:44;34.75;33.22;36.82;;
66463;Laerm;56827;52.178;4.500;2022-12-18T00:25:54;33.23;31.34;35.74;;
66463;Laerm;56827;52.178;4.500;2022-12-18T00:26:06;32.84;31.26;34.74;;
66463;Laerm;56827;52.178;4.500;2022-12-18T00:26:17;33.14;31.29;34.83;;
66463;Laerm;56827;52.178;4.500;2022-12-18T00:26:29;32.41;30.90;34.14;;
66463;Laerm;56827;52.178;4.500;2022-12-18T00:26:40;32.64;30.62;34.10;;
66463;Laerm;56827;52.178;4.500;2022-12-18T00:26:50;33.13;31.40;36.84;;
66463;Laerm;56827;52.178;4.500;2022-12-18T00:27:00;33.87;31.34;36.21;;
66463;Laerm;56827;52.178;4.500;2022-12-18T00:27:10;36.28;33.49;38.78;;
66463;Laerm;56827;52.178;4.500;2022-12-18T00:27:21;37.46;34.09;40.49;;
66463;Laerm;56827;52.178;4.500;2022-12-18T00:27:31;34.29;32.29;37.51;;
66463;Laerm;56827;52.178;4.500;2022-12-18T00:27:41;33.13;31.75;36.79;;
66463;Laerm;56827;52.178;4.500;2022-12-18T00:27:51;33.18;31.78;34.52;;
66463;Laerm;56827;52.178;4.500;2022-12-18T00:28:02;32.86;31.51;34.42;;
66463;Laerm;56827;52.178;4.500;2022-12-18T00:28:12;33.42;31.94;43.34;;
66463;Laerm;56827;52.178;4.500;2022-12-18T00:28:23;32.52;31.20;35.09;;
66463;Laerm;56827;52.178;4.500;2022-12-18T00:28:33;32.16;30.67;33.40;;
66463;Laerm;56827;52.178;4.500;2022-12-18T00:28:43;32.17;30.64;34.14;;
66463;Laerm;56827;52.178;4.500;2022-12-18T00:28:54;31.96;30.46;33.13;;
66463;Laerm;56827;52.178;4.500;2022-12-18T00:29:10;31.95;30.55;34.70;;
66463;Laerm;56827;52.178;4.500;2022-12-18T00:29:21;31.72;30.38;33.30;;
66463;Laerm;56827;52.178;4.500;2022-12-18T00:29:31;31.81;30.42;33.33;;
66463;Laerm;56827;52.178;4.500;2022-12-18T00:29:41;31.89;30.46;33.08;;
66463;Laerm;56827;52.178;4.500;2022-12-18T00:29:52;32.23;30.81;34.10;;
66463;Laerm;56827;52.178;4.500;2022-12-18T00:30:02;32.37;30.56;33.85;;
66463;Laerm;56827;52.178;4.500;2022-12-18T00:30:12;32.25;30.58;33.74;;
66463;Laerm;56827;52.178;4.500;2022-12-18T00:30:23;32.41;30.75;35.42;;
66463;Laerm;56827;52.178;4.500;2022-12-18T00:30:33;33.96;30.99;37.49;;
66463;Laerm;56827;52.178;4.500;2022-12-18T00:30:43;35.91;33.14;39.76;;
66463;Laerm;56827;52.178;4.500;2022-12-18T00:31:00;37.97;34.29;41.09;;
66463;Laerm;56827;52.178;4.500;2022-12-18T00:31:15;33.27;31.05;36.30;;
66463;Laerm;56827;52.178;4.500;2022-12-18T00:31:26;35.35;31.79;39.49;;
66463;Laerm;56827;52.178;4.500;2022-12-18T00:31:36;34.00;32.36;36.85;;
66463;Laerm;56827;52.178;4.500;2022-12-18T00:31:47;33.63;31.80;35.52;;
66463;Laerm;56827;52.178;4.500;2022-12-18T00:31:57;36.11;33.12;39.04;;
66463;Laerm;56827;52.178;4.500;2022-12-18T00:32:07;34.60;32.33;38.24;;
66463;Laerm;56827;52.178;4.500;2022-12-18T00:32:17;32.69;30.82;34.63;;
66463;Laerm;56827;52.178;4.500;2022-12-18T00:32:28;35.30;31.25;42.06;;
66463;Laerm;56827;52.178;4.500;2022-12-18T00:32:38;33.43;31.79;38.58;;
66463;Laerm;56827;52.178;4.500;2022-12-18T00:32:48;34.61;32.52;36.68;;
66463;Laerm;56827;52.178;4.500;2022-12-18T00:32:58;34.03;31.33;37.57;;
66463;Laerm;56827;52.178;4.500;2022-12-18T00:33:09;35.03;33.23;36.51;;
66463;Laerm;56827;52.178;4.500;2022-12-18T00:33:19;36.60;34.15;39.84;;
66463;Laerm;56827;52.178;4.500;2022-12-18T00:33:29;34.75;31.62;37.95;;
66463;Laerm;56827;52.178;4.500;2022-12-18T00:33:39;33.35;31.83;35.31;;
66463;Laerm;56827;52.178;4.500;2022-12-18T00:33:50;33.98;32.25;35.89;;
66463;Laerm;56827;52.178;4.500;2022-12-18T00:34:00;36.06;33.89;41.15;;
66463;Laerm;56827;52.178;4.500;2022-12-18T00:34:11;39.22;33.89;45.92;;
66463;Laerm;56827;52.178;4.500;2022-12-18T00:34:22;39.44;34.59;44.10;;
66463;Laerm;56827;52.178;4.500;2022-12-18T00:34:32;34.64;31.89;37.63;;
66463;Laerm;56827;52.178;4.500;2022-12-18T00:34:42;32.23;30.83;34.26;;
66463;Laerm;56827;52.178;4.500;2022-12-18T00:34:53;35.17;32.30;46.87;;
66463;Laerm;56827;52.178;4.500;2022-12-18T00:35:03;32.78;31.31;39.99;;
66463;Laerm;56827;52.178;4.500;2022-12-18T00:35:14;32.58;31.42;34.68;;
66463;Laerm;56827;52.178;4.500;2022-12-18T00:35:24;33.35;31.45;35.38;;
66463;Laerm;56827;52.178;4.500;2022-12-18T00:35:34;35.24;31.27;46.23;;
66463;Laerm;56827;52.178;4.500;2022-12-18T00:35:44;35.94;33.57;42.60;;
66463;Laerm;56827;52.178;4.500;2022-12-18T00:35:54;35.86;33.19;40.32;;
66463;Laerm;56827;52.178;4.500;2022-12-18T00:36:05;39.18;32.22;52.28;;
66463;Laerm;56827;52.178;4.500;2022-12-18T00:36:20;32.99;31.31;34.55;;
66463;Laerm;56827;52.178;4.500;2022-12-18T00:36:33;33.30;31.21;35.31;;
66463;Laerm;56827;52.178;4.500;2022-12-18T00:36:44;33.58;31.30;37.84;;
66463;Laerm;56827;52.178;4.500;2022-12-18T00:36:54;52.06;35.03;60.37;;
66463;Laerm;56827;52.178;4.500;2022-12-18T00:37:04;53.96;36.51;63.46;;
66463;Laerm;56827;52.178;4.500;2022-12-18T00:37:14;37.01;35.01;39.14;;
66463;Laerm;56827;52.178;4.500;2022-12-18T00:37:25;36.82;32.88;42.78;;
66463;Laerm;56827;52.178;4.500;2022-12-18T00:37:35;33.22;31.02;35.50;;
66463;Laerm;56827;52.178;4.500;2022-12-18T00:37:45;33.78;31.68;35.91;;
66463;Laerm;56827;52.178;4.500;2022-12-18T00:37:55;33.01;31.42;34.90;;
66463;Laerm;56827;52.178;4.500;2022-12-18T00:38:06;32.65;30.89;36.76;;
66463;Laerm;56827;52.178;4.500;2022-12-18T00:38:16;32.62;31.39;34.28;;
66463;Laerm;56827;52.178;4.500;2022-12-18T00:38:26;32.48;31.16;34.23;;
66463;Laerm;56827;52.178;4.500;2022-12-18T00:38:37;32.16;30.91;33.88;;
66463;Laerm;56827;52.178;4.500;2022-12-18T00:38:47;33.91;31.60;36.83;;
66463;Laerm;56827;52.178;4.500;2022-12-18T00:38:58;34.34;32.57;38.27;;
66463;Laerm;56827;52.178;4.500;2022-12-18T00:39:09;35.06;32.66;39.26;;
66463;Laerm;56827;52.178;4.500;2022-12-18T00:39:20;34.74;32.49;36.90;;
66463;Laerm;56827;52.178;4.500;2022-12-18T00:39:30;35.37;33.21;37.98;;
66463;Laerm;56827;52.178;4.500;2022-12-18T00:39:41;33.03;31.30;34.83;;
66463;Laerm;56827;52.178;4.500;2022-12-18T00:39:51;32.51;31.44;33.62;;
66463;Laerm;56827;52.178;4.500;2022-12-18T00:40:02;33.75;31.22;35.39;;
66463;Laerm;56827;52.178;4.500;2022-12-18T00:40:12;34.17;32.39;35.88;;
66463;Laerm;56827;52.178;4.500;2022-12-18T00:40:23;33.29;31.58;40.60;;
66463;Laerm;56827;52.178;4.500;2022-12-18T00:40:33;32.82;30.88;35.28;;
66463;Laerm;56827;52.178;4.500;2022-12-18T00:40:43;32.48;30.89;33.62;;
66463;Laerm;56827;52.178;4.500;2022-12-18T00:40:53;33.91;32.48;36.74;;
66463;Laerm;56827;52.178;4.500;2022-12-18T00:41:06;37.48;34.74;45.82;;
66463;Laerm;56827;52.178;4.500;2022-12-18T00:41:16;36.61;33.03;43.17;;
66463;Laerm;56827;52.178;4.500;2022-12-18T00:41:47;34.02;32.00;41.14;;
66463;Laerm;56827;52.178;4.500;2022-12-18T00:42:16;34.11;31.08;43.90;;
66463;Laerm;56827;52.178;4.500;2022-12-18T00:42:45;40.40;30.60;56.07;;
66463;Laerm;56827;52.178;4.500;2022-12-18T00:43:08;32.30;30.46;36.32;;
66463;Laerm;56827;52.178;4.500;2022-12-18T00:43:18;31.80;30.10;33.73;;
66463;Laerm;56827;52.178;4.500;2022-12-18T00:43:28;31.77;30.11;33.16;;
66463;Laerm;56827;52.178;4.500;2022-12-18T00:43:39;31.89;30.60;35.04;;
66463;Laerm;56827;52.178;4.500;2022-12-18T00:43:49;31.71;30.07;34.14;;
66463;Laerm;56827;52.178;4.500;2022-12-18T00:43:59;32.26;30.36;41.06;;
66463;Laerm;56827;52.178;4.500;2022-12-18T00:44:11;32.68;31.00;34.86;;
66463;Laerm;56827;52.178;4.500;2022-12-18T00:44:21;32.34;30.31;34.11;;
66463;Laerm;56827;52.178;4.500;2022-12-18T00:44:32;31.87;30.27;36.39;;
66463;Laerm;56827;52.178;4.500;2022-12-18T00:44:42;31.77;30.25;33.90;;
66463;Laerm;56827;52.178;4.500;2022-12-18T00:44:52;31.79;30.40;33.26;;
66463;Laerm;56827;52.178;4.500;2022-12-18T00:45:02;31.55;30.05;33.28;;
66463;Laerm;56827;52.178;4.500;2022-12-18T00:45:13;31.73;30.45;33.77;;
66463;Laerm;56827;52.178;4.500;2022-12-18T00:45:24;31.63;30.10;32.93;;
66463;Laerm;56827;52.178;4.500;2022-12-18T00:45:35;31.65;30.12;35.95;;
66463;Laerm;56827;52.178;4.500;2022-12-18T00:45:45;31.87;29.99;33.34;;
66463;Laerm;56827;52.178;4.500;2022-12-18T00:45:55;31.69;30.02;32.99;;
66463;Laerm;56827;52.178;4.500;2022-12-18T00:46:05;31.74;30.14;33.26;;
66463;Laerm;56827;52.178;4.500;2022-12-18T00:46:16;32.21;31.16;33.52;;
66463;Laerm;56827;52.178;4.500;2022-12-18T00:46:26;32.20;31.06;33.76;;
66463;Laerm;56827;52.178;4.500;2022-12-18T00:46:36;32.18;30.22;33.73;;
66463;Laerm;56827;52.178;4.500;2022-12-18T00:46:47;32.28;30.35;35.12;;
66463;Laerm;56827;52.178;4.500;2022-12-18T00:46:57;32.88;31.63;34.57;;
66463;Laerm;56827;52.178;4.500;2022-12-18T00:47:07;33.45;31.66;36.36;;
66463;Laerm;56827;52.178;4.500;2022-12-18T00:47:17;33.08;31.78;35.22;;
66463;Laerm;56827;52.178;4.500;2022-12-18T00:47:28;34.25;32.09;35.58;;
66463;Laerm;56827;52.178;4.500;2022-12-18T00:47:38;35.99;32.25;43.18;;
66463;Laerm;56827;52.178;4.500;2022-12-18T00:47:48;33.14;31.72;36.00;;
66463;Laerm;56827;52.178;4.500;2022-12-18T00:47:58;33.39;31.89;34.98;;
66463;Laerm;56827;52.178;4.500;2022-12-18T00:48:09;32.83;30.76;34.59;;
66463;Laerm;56827;52.178;4.500;2022-12-18T00:48:19;31.62;29.96;33.34;;
66463;Laerm;56827;52.178;4.500;2022-12-18T00:48:29;32.38;30.55;34.31;;
66463;Laerm;56827;52.178;4.500;2022-12-18T00:48:39;33.74;31.75;39.23;;
66463;Laerm;56827;52.178;4.500;2022-12-18T00:48:49;33.21;31.61;36.98;;
66463;Laerm;56827;52.178;4.500;2022-12-18T00:49:00;34.05;32.30;37.25;;
66463;Laerm;56827;52.178;4.500;2022-12-18T00:49:10;36.77;33.80;46.27;;
66463;Laerm;56827;52.178;4.500;2022-12-18T00:49:20;35.09;32.72;40.12;;
66463;Laerm;56827;52.178;4.500;2022-12-18T00:49:31;34.64;32.92;37.40;;
66463;Laerm;56827;52.178;4.500;2022-12-18T00:49:41;34.79;32.35;38.04;;
66463;Laerm;56827;52.178;4.500;2022-12-18T00:49:51;35.11;33.26;42.21;;
66463;Laerm;56827;52.178;4.500;2022-12-18T00:50:01;35.82;32.70;44.53;;
66463;Laerm;56827;52.178;4.500;2022-12-18T00:50:11;33.48;31.94;38.14;;
66463;Laerm;56827;52.178;4.500;2022-12-18T00:50:23;33.47;32.07;35.11;;
66463;Laerm;56827;52.178;4.500;2022-12-18T00:50:33;35.51;33.38;38.56;;
66463;Laerm;56827;52.178;4.500;2022-12-18T00:50:44;33.94;31.59;38.52;;
66463;Laerm;56827;52.178;4.500;2022-12-18T00:50:54;36.23;34.44;37.99;;
66463;Laerm;56827;52.178;4.500;2022-12-18T00:51:04;35.06;32.98;39.45;;
66463;Laerm;56827;52.178;4.500;2022-12-18T00:51:15;34.70;32.79;36.89;;
66463;Laerm;56827;52.178;4.500;2022-12-18T00:51:25;34.42;33.09;37.71;;
66463;Laerm;56827;52.178;4.500;2022-12-18T00:51:35;35.45;32.80;38.71;;
66463;Laerm;56827;52.178;4.500;2022-12-18T00:51:46;33.83;32.18;37.86;;
66463;Laerm;56827;52.178;4.500;2022-12-18T00:51:56;33.94;32.33;37.52;;
66463;Laerm;56827;52.178;4.500;2022-12-18T00:52:06;34.76;32.06;38.82;;
66463;Laerm;56827;52.178;4.500;2022-12-18T00:52:16;36.76;32.46;41.36;;
66463;Laerm;56827;52.178;4.500;2022-12-18T00:52:26;37.84;33.34;41.94;;
66463;Laerm;56827;52.178;4.500;2022-12-18T00:52:37;34.20;32.97;36.45;;
66463;Laerm;56827;52.178;4.500;2022-12-18T00:52:47;34.39;32.56;38.72;;
66463;Laerm;56827;52.178;4.500;2022-12-18T00:52:57;33.01;30.84;46.93;;
66463;Laerm;56827;52.178;4.500;2022-12-18T00:53:07;33.37;30.79;37.09;;
66463;Laerm;56827;52.178;4.500;2022-12-18T00:53:18;33.49;31.57;36.28;;
66463;Laerm;56827;52.178;4.500;2022-12-18T00:53:28;32.22;30.53;33.48;;
66463;Laerm;56827;52.178;4.500;2022-12-18T00:53:38;35.40;31.98;39.10;;
66463;Laerm;56827;52.178;4.500;2022-12-18T00:53:48;41.31;33.80;48.26;;
66463;Laerm;56827;52.178;4.500;2022-12-18T00:53:59;36.47;32.74;38.82;;
66463;Laerm;56827;52.178;4.500;2022-12-18T00:54:09;32.90;30.52;35.92;;
66463;Laerm;56827;52.178;4.500;2022-12-18T00:54:19;34.17;31.80;36.81;;
66463;Laerm;56827;52.178;4.500;2022-12-18T00:54:29;32.86;31.35;34.38;;
66463;Laerm;56827;52.178;4.500;2022-12-18T00:54:40;38.44;32.49;57.31;;
66463;Laerm;56827;52.178;4.500;2022-12-18T00:54:50;34.41;32.21;45.10;;
66463;Laerm;56827;52.178;4.500;2022-12-18T00:55:00;32.95;31.14;35.79;;
66463;Laerm;56827;52.178;4.500;2022-12-18T00:55:10;31.83;30.54;36.54;;
66463;Laerm;56827;52.178;4.500;2022-12-18T00:55:21;31.80;30.32;34.28;;
66463;Laerm;56827;52.178;4.500;2022-12-18T00:55:31;32.18;30.69;35.65;;
66463;Laerm;56827;52.178;4.500;2022-12-18T00:55:42;32.29;30.53;35.36;;
66463;Laerm;56827;52.178;4.500;2022-12-18T00:55:52;31.84;30.23;33.21;;
66463;Laerm;56827;52.178;4.500;2022-12-18T00:56:03;31.84;30.49;33.59;;
66463;Laerm;56827;52.178;4.500;2022-12-18T00:56:13;31.96;30.68;33.13;;
66463;Laerm;56827;52.178;4.500;2022-12-18T00:56:23;32.48;30.65;34.21;;
66463;Laerm;56827;52.178;4.500;2022-12-18T00:56:35;32.29;30.95;34.32;;
66463;Laerm;56827;52.178;4.500;2022-12-18T00:56:45;33.65;32.06;35.75;;
66463;Laerm;56827;52.178;4.500;2022-12-18T00:56:55;32.49;30.96;33.69;;
66463;Laerm;56827;52.178;4.500;2022-12-18T00:57:05;36.01;31.70;39.54;;
66463;Laerm;56827;52.178;4.500;2022-12-18T00:57:16;32.95;30.84;35.34;;
66463;Laerm;56827;52.178;4.500;2022-12-18T00:57:26;32.45;30.12;38.31;;
66463;Laerm;56827;52.178;4.500;2022-12-18T00:57:36;32.47;30.47;37.83;;
66463;Laerm;56827;52.178;4.500;2022-12-18T00:57:46;43.34;30.65;56.79;;
66463;Laerm;56827;52.178;4.500;2022-12-18T00:57:57;51.30;31.17;67.10;;
66463;Laerm;56827;52.178;4.500;2022-12-18T00:58:08;33.80;30.87;40.29;;
66463;Laerm;56827;52.178;4.500;2022-12-18T00:58:18;32.66;30.37;36.62;;
66463;Laerm;56827;52.178;4.500;2022-12-18T00:58:28;31.69;30.17;33.40;;
66463;Laerm;56827;52.178;4.500;2022-12-18T00:58:39;31.55;30.10;33.01;;
66463;Laerm;56827;52.178;4.500;2022-12-18T00:58:49;31.24;29.78;33.04;;
66463;Laerm;56827;52.178;4.500;2022-12-18T00:58:59;32.50;30.04;46.34;;
66463;Laerm;56827;52.178;4.500;2022-12-18T00:59:09;31.76;30.09;33.36;;
66463;Laerm;56827;52.178;4.500;2022-12-18T00:59:19;31.65;30.06;34.36;;
66463;Laerm;56827;52.178;4.500;2022-12-18T00:59:30;31.70;30.26;33.26;;
66463;Laerm;56827;52.178;4.500;2022-12-18T00:59:40;31.60;30.25;32.84;;
66463;Laerm;56827;52.178;4.500;2022-12-18T00:59:50;31.38;30.11;32.69;;
66463;Laerm;56827;52.178;4.500;2022-12-18T01:00:01;32.07;30.10;34.22;;
66463;Laerm;56827;52.178;4.500;2022-12-18T01:00:12;32.51;30.52;34.14;;
66463;Laerm;56827;52.178;4.500;2022-12-18T01:00:23;32.59;31.08;34.13;;
66463;Laerm;56827;52.178;4.500;2022-12-18T01:00:33;31.75;30.19;33.47;;